createdAt,value
2022-12-19T00:01:56.586Z,24.39
2022-12-19T00:04:24.499Z,24.39
2022-12-19T00:06:52.449Z,24.10
2022-12-19T00:09:20.372Z,24.19
2022-12-19T00:11:48.235Z,24.21
2022-12-19T00:14:15.970Z,24.11
2022-12-19T00:16:43.924Z,24.28
2022-12-19T00:19:12.023Z,24.15
2022-12-19T00:21:39.845Z,23.96
2022-12-19T00:24:14.536Z,24.50
2022-12-19T00:26:49.355Z,24.48
2022-12-19T00:29:17.122Z,24.53
2022-12-19T00:31:45.000Z,24.25
2022-12-19T00:34:12.990Z,24.42
2022-12-19T00:36:40.786Z,24.27
2022-12-19T00:39:10.341Z,24.71
2022-12-19T00:41:40.077Z,24.46
2022-12-19T00:44:09.724Z,24.63
2022-12-19T00:46:37.522Z,24.53
2022-12-19T00:49:05.337Z,24.77
2022-12-19T00:51:33.111Z,24.80
2022-12-19T00:54:00.985Z,24.94
2022-12-19T00:56:30.005Z,25.00
2022-12-19T00:58:57.857Z,24.85
2022-12-19T01:01:25.823Z,24.61
2022-12-19T01:04:26.548Z,25.03
2022-12-19T01:06:41.574Z,24.87
2022-12-19T01:09:09.493Z,24.77
2022-12-19T01:11:54.614Z,24.85
2022-12-19T01:14:23.453Z,25.33
2022-12-19T01:16:51.254Z,25.18
2022-12-19T01:19:19.051Z,25.09
2022-12-19T01:21:46.763Z,25.22
2022-12-19T01:24:15.827Z,24.85
2022-12-19T01:26:47.071Z,25.14
2022-12-19T01:29:14.792Z,24.95
2022-12-19T01:31:42.621Z,25.48
2022-12-19T01:34:10.515Z,25.26
2022-12-19T01:36:39.878Z,25.23
2022-12-19T01:39:07.978Z,24.66
2022-12-19T01:41:35.819Z,25.06
2022-12-19T01:44:03.597Z,25.05
2022-12-19T01:46:31.470Z,25.36
2022-12-19T01:48:59.203Z,25.01
2022-12-19T01:51:26.922Z,25.38
2022-12-19T01:53:54.636Z,24.81
2022-12-19T01:56:22.385Z,24.78
2022-12-19T02:39:26.205Z,25.83
2022-12-19T02:41:55.559Z,25.29
2022-12-19T02:44:23.538Z,25.88
2022-12-19T02:46:51.333Z,26.08
2022-12-19T02:49:26.006Z,25.93
2022-12-19T02:51:59.029Z,26.00
2022-12-19T02:54:27.072Z,26.51
2022-12-19T02:56:54.938Z,26.69
2022-12-19T02:59:22.781Z,26.28
2022-12-19T03:01:51.085Z,26.50
2022-12-19T03:04:19.158Z,26.38
2022-12-19T03:06:46.980Z,26.50
2022-12-19T03:09:15.755Z,26.84
2022-12-19T03:11:43.602Z,26.61
2022-12-19T03:14:11.368Z,26.46
2022-12-19T03:16:39.224Z,26.66
2022-12-19T03:19:07.206Z,26.38
2022-12-19T03:21:34.977Z,26.53
2022-12-19T03:24:02.860Z,26.54
2022-12-19T03:26:30.671Z,26.76
2022-12-19T03:28:58.456Z,27.37
2022-12-19T03:31:26.290Z,26.96
2022-12-19T03:33:54.090Z,26.63
2022-12-19T03:36:21.891Z,26.41
2022-12-19T03:38:49.864Z,26.39
2022-12-19T03:41:37.687Z,26.55
2022-12-19T03:44:04.493Z,26.29
2022-12-19T03:46:32.407Z,26.52
2022-12-19T03:49:00.177Z,26.75
2022-12-19T03:51:28.426Z,26.27
2022-12-19T03:53:56.407Z,26.79
2022-12-19T03:56:24.166Z,26.54
2022-12-19T03:58:51.910Z,26.63
2022-12-19T04:01:21.730Z,26.68
2022-12-19T04:03:50.591Z,27.05
2022-12-19T04:06:18.453Z,26.81
2022-12-19T04:08:46.506Z,27.19
2022-12-19T04:11:14.491Z,27.49
2022-12-19T04:13:42.271Z,27.52
2022-12-19T04:16:10.221Z,27.96
2022-12-19T04:18:38.042Z,27.74
2022-12-19T04:21:05.881Z,27.33
2022-12-19T04:23:33.672Z,27.57
2022-12-19T04:26:02.304Z,27.98
2022-12-19T04:28:30.090Z,28.22
2022-12-19T04:30:57.884Z,28.09
2022-12-19T04:33:25.839Z,27.95
2022-12-19T04:35:53.667Z,28.23
2022-12-19T04:38:24.228Z,27.76
2022-12-19T04:40:52.182Z,28.23
2022-12-19T04:43:20.062Z,28.09
2022-12-19T04:45:50.551Z,28.37
2022-12-19T04:48:22.068Z,28.29
2022-12-19T04:50:49.851Z,28.41
2022-12-19T04:53:17.658Z,28.06
2022-12-19T04:55:45.478Z,28.60
2022-12-19T04:58:16.343Z,27.86
2022-12-19T05:00:47.095Z,27.58
2022-12-19T05:03:14.973Z,27.82
2022-12-19T05:05:42.814Z,27.67
2022-12-19T05:08:11.208Z,27.77
2022-12-19T05:10:39.169Z,27.58
2022-12-19T05:13:07.682Z,27.88
2022-12-19T05:15:35.691Z,27.76
2022-12-19T05:18:04.200Z,27.59
2022-12-19T05:20:32.065Z,27.89
2022-12-19T05:23:03.208Z,28.23
2022-12-19T05:25:35.273Z,28.01
2022-12-19T05:28:03.072Z,28.30
2022-12-19T05:30:31.646Z,28.32
2022-12-19T05:32:59.396Z,28.33
2022-12-19T05:35:27.299Z,28.38
2022-12-19T05:37:55.197Z,28.11
2022-12-19T05:40:23.027Z,28.43
2022-12-19T05:42:50.905Z,28.31
2022-12-19T05:45:18.707Z,28.27
2022-12-19T05:47:46.724Z,28.20
2022-12-19T05:50:14.564Z,27.94
2022-12-19T05:52:42.413Z,27.80
2022-12-19T05:55:10.257Z,27.65
2022-12-19T05:57:38.348Z,27.91
2022-12-19T06:00:08.557Z,27.74
2022-12-19T06:02:36.419Z,27.75
2022-12-19T06:05:04.343Z,27.62
2022-12-19T06:07:32.172Z,27.84
2022-12-19T06:10:00.164Z,27.55
2022-12-19T06:12:28.003Z,27.68
2022-12-19T06:14:55.814Z,27.54
2022-12-19T06:17:23.605Z,27.57
2022-12-19T06:19:51.383Z,27.25
2022-12-19T06:22:19.178Z,27.17
2022-12-19T06:24:47.022Z,27.25
2022-12-19T06:27:14.806Z,27.11
2022-12-19T06:29:42.565Z,27.29
2022-12-19T06:32:10.391Z,27.63
2022-12-19T06:37:26.296Z,27.39
2022-12-19T06:39:54.105Z,27.08
2022-12-19T06:42:23.982Z,27.55
2022-12-19T06:44:51.859Z,27.39
2022-12-19T06:47:19.635Z,27.36
2022-12-19T06:49:50.400Z,27.77
2022-12-19T06:52:18.208Z,27.60
2022-12-19T06:54:46.296Z,27.45
2022-12-19T06:57:14.030Z,27.22
2022-12-19T06:59:41.782Z,27.89
2022-12-19T07:02:09.662Z,27.90
2022-12-19T07:04:37.540Z,27.95
2022-12-19T07:07:05.331Z,27.79
2022-12-19T07:09:33.189Z,28.05
2022-12-19T07:12:01.069Z,28.42
2022-12-19T07:14:28.836Z,27.80
2022-12-19T07:16:56.665Z,28.13
2022-12-19T07:19:24.480Z,28.24
2022-12-19T07:21:52.258Z,28.09
2022-12-19T07:24:20.006Z,28.38
2022-12-19T07:26:47.809Z,28.04
2022-12-19T07:29:15.740Z,27.99
2022-12-19T07:31:43.565Z,28.04
2022-12-19T07:34:11.429Z,27.66
2022-12-19T07:36:39.285Z,27.79
2022-12-19T07:39:07.088Z,27.98
2022-12-19T07:41:34.887Z,28.25
2022-12-19T07:44:02.771Z,28.13
2022-12-19T07:46:31.175Z,28.13
2022-12-19T07:49:02.122Z,28.23
2022-12-19T07:51:30.214Z,28.17
2022-12-19T07:53:58.792Z,28.04
2022-12-19T07:56:27.612Z,28.29
2022-12-19T07:58:55.496Z,27.87
2022-12-19T08:01:23.440Z,28.08
2022-12-19T08:03:51.274Z,28.21
2022-12-19T08:06:19.067Z,27.77
2022-12-19T08:08:46.876Z,28.28
2022-12-19T08:11:15.180Z,28.09
2022-12-19T08:13:46.425Z,28.38
2022-12-19T08:16:14.727Z,27.92
2022-12-19T08:18:42.622Z,27.91
2022-12-19T08:21:10.419Z,28.05
2022-12-19T08:23:38.804Z,28.10
2022-12-19T08:26:06.626Z,28.32
2022-12-19T08:28:34.471Z,27.99
2022-12-19T08:31:02.306Z,28.33
2022-12-19T08:33:30.251Z,28.12
2022-12-19T08:35:58.108Z,28.13
2022-12-19T08:38:25.874Z,28.18
2022-12-19T08:40:54.046Z,28.01
2022-12-19T08:43:21.919Z,28.38
2022-12-19T08:45:49.761Z,28.30
2022-12-19T08:48:17.601Z,28.21
2022-12-19T08:50:45.461Z,28.18
2022-12-19T08:53:13.297Z,28.35
2022-12-19T08:55:41.152Z,28.58
2022-12-19T08:58:09.009Z,28.35
2022-12-19T09:00:36.793Z,28.28
2022-12-19T09:03:04.751Z,28.17
2022-12-19T09:06:03.098Z,28.28
2022-12-19T09:08:21.855Z,28.21
2022-12-19T09:10:49.622Z,28.21
2022-12-19T09:13:17.546Z,28.40
2022-12-19T09:15:45.404Z,28.29
2022-12-19T09:18:13.214Z,28.14
2022-12-19T09:20:41.019Z,28.64
2022-12-19T09:23:08.836Z,28.39
2022-12-19T09:25:36.885Z,28.39
2022-12-19T09:30:52.607Z,28.43
2022-12-19T09:33:20.490Z,28.46
2022-12-19T09:35:48.255Z,28.54
2022-12-19T09:38:16.029Z,28.33
2022-12-19T09:40:44.178Z,28.43
2022-12-19T09:43:11.957Z,28.30
2022-12-19T09:45:40.482Z,28.42
2022-12-19T09:48:08.309Z,28.30
2022-12-19T09:50:36.955Z,28.13
2022-12-19T09:53:04.917Z,28.17
2022-12-19T09:55:32.666Z,28.38
2022-12-19T09:58:04.767Z,28.29
2022-12-19T10:00:33.874Z,28.25
2022-12-19T10:03:01.831Z,28.31
2022-12-19T10:05:37.630Z,28.58
2022-12-19T10:08:17.853Z,28.29
2022-12-19T10:12:37.903Z,28.23
2022-12-19T10:13:35.059Z,28.51
2022-12-19T10:16:03.416Z,28.60
2022-12-19T10:18:31.208Z,28.73
2022-12-19T10:20:59.055Z,28.50
2022-12-19T10:23:29.352Z,28.54
2022-12-19T10:25:57.334Z,29.11
2022-12-19T10:28:25.183Z,28.69
2022-12-19T10:30:53.064Z,28.88
2022-12-19T10:33:21.200Z,28.90
2022-12-19T10:35:49.848Z,28.63
2022-12-19T10:38:19.160Z,28.76
2022-12-19T10:40:46.984Z,29.17
2022-12-19T10:43:20.471Z,28.99
2022-12-19T10:45:53.596Z,28.99
2022-12-19T10:48:22.533Z,28.84
2022-12-19T10:50:58.843Z,28.71
2022-12-19T10:53:34.171Z,29.17
2022-12-19T10:56:02.004Z,29.06
2022-12-19T10:58:30.460Z,29.09
2022-12-19T11:00:58.408Z,29.03
2022-12-19T11:03:26.336Z,29.12
2022-12-19T11:05:57.766Z,29.00
2022-12-19T11:08:26.462Z,28.68
2022-12-19T11:12:24.591Z,28.84
2022-12-19T11:17:32.312Z,28.89
2022-12-19T11:21:34.973Z,28.60
2022-12-19T11:29:18.090Z,28.81
2022-12-19T11:29:33.380Z,29.05
2022-12-19T11:30:35.209Z,28.88
2022-12-19T11:30:46.599Z,28.98
2022-12-19T11:33:17.934Z,28.41
2022-12-19T11:35:45.869Z,28.81
2022-12-19T11:38:13.696Z,28.58
2022-12-19T11:40:48.468Z,28.88
2022-12-19T11:46:05.683Z,28.71
2022-12-19T11:48:33.609Z,28.48
2022-12-19T11:51:01.427Z,29.07
2022-12-19T11:53:30.838Z,29.13
2022-12-19T11:56:00.118Z,29.31
2022-12-19T11:58:28.618Z,28.77
2022-12-19T12:00:56.395Z,28.78
2022-12-19T12:03:24.313Z,29.00
2022-12-19T12:05:52.158Z,29.10
2022-12-19T12:11:12.992Z,29.01
2022-12-19T12:14:33.005Z,28.79
2022-12-19T12:23:45.240Z,29.28
2022-12-19T12:25:09.737Z,29.07
2022-12-19T12:31:07.990Z,29.02
2022-12-19T12:31:23.146Z,29.05
2022-12-19T12:31:42.939Z,29.73
2022-12-19T12:31:48.345Z,29.42
2022-12-19T12:31:52.224Z,29.42
2022-12-19T12:35:54.023Z,29.10
2022-12-19T12:37:52.455Z,29.74
2022-12-19T12:39:05.655Z,29.60
2022-12-19T12:41:56.241Z,29.50
2022-12-19T12:44:32.754Z,29.11
2022-12-19T12:47:01.242Z,29.62
2022-12-19T12:49:29.690Z,29.59
2022-12-19T12:51:57.471Z,29.52
2022-12-19T12:54:25.319Z,29.51
2022-12-19T12:56:55.366Z,29.54
2022-12-19T12:59:23.306Z,29.39
2022-12-19T13:01:51.150Z,29.30
2022-12-19T13:04:19.120Z,29.20
2022-12-19T13:06:46.916Z,29.00
2022-12-19T13:09:14.760Z,29.23
2022-12-19T13:11:59.933Z,29.38
2022-12-19T13:14:27.763Z,29.07
2022-12-19T13:16:55.619Z,29.14
2022-12-19T13:19:27.826Z,29.19
2022-12-19T13:21:56.407Z,29.08
2022-12-19T13:24:24.528Z,28.83
2022-12-19T13:26:52.540Z,29.32
2022-12-19T13:29:20.316Z,29.38
2022-12-19T13:31:48.160Z,29.05
2022-12-19T13:34:15.950Z,29.07
2022-12-19T13:39:49.683Z,29.12
2022-12-19T13:39:56.402Z,28.96
2022-12-19T13:42:36.847Z,28.95
2022-12-19T13:45:05.821Z,29.30
2022-12-19T13:47:33.589Z,29.31
2022-12-19T13:50:01.389Z,29.36
2022-12-19T13:52:29.202Z,28.97
2022-12-19T13:54:56.998Z,29.52
2022-12-19T13:57:24.776Z,29.16
2022-12-19T13:59:59.314Z,29.48
2022-12-19T14:02:29.095Z,29.09
2022-12-19T14:04:57.044Z,29.24
2022-12-19T14:07:34.845Z,29.22
2022-12-19T14:11:37.956Z,29.40
2022-12-19T14:13:36.256Z,29.51
2022-12-19T14:15:57.643Z,29.39
2022-12-19T14:18:42.589Z,29.25
2022-12-19T14:22:05.119Z,29.65
2022-12-19T14:24:01.080Z,29.64
2022-12-19T14:28:26.304Z,29.95
2022-12-19T14:29:16.616Z,30.09
2022-12-19T14:32:15.136Z,29.42
2022-12-19T14:36:04.970Z,29.74
2022-12-19T14:38:54.431Z,29.81
2022-12-19T14:40:19.740Z,29.97
2022-12-19T14:43:59.245Z,29.48
2022-12-19T14:52:08.236Z,15.48
2022-12-19T14:52:34.730Z,28.40
2022-12-19T14:54:28.080Z,9.50
2022-12-19T14:57:04.757Z,6.41
2022-12-19T14:59:33.925Z,5.39
2022-12-19T15:02:01.825Z,5.14
2022-12-19T15:04:51.025Z,5.05
2022-12-19T15:07:17.461Z,5.02
2022-12-19T15:11:05.011Z,4.46
2022-12-19T15:14:51.987Z,4.63
2022-12-19T15:15:38.728Z,5.04
2022-12-19T15:18:06.669Z,4.59
2022-12-19T15:20:34.547Z,4.34
2022-12-19T15:23:04.191Z,4.27
2022-12-19T15:28:20.344Z,4.88
2022-12-19T15:30:48.100Z,5.59
2022-12-19T15:33:15.929Z,6.20
2022-12-19T15:35:43.702Z,6.99
2022-12-19T15:38:11.599Z,7.44
2022-12-19T15:40:39.328Z,8.64
2022-12-19T15:43:07.149Z,9.19
2022-12-19T15:45:34.902Z,9.96
2022-12-19T15:48:02.744Z,11.08
2022-12-19T15:50:32.257Z,11.51
2022-12-19T15:53:00.125Z,12.49
2022-12-19T15:55:28.023Z,13.25
2022-12-19T15:57:55.830Z,14.06
2022-12-19T16:00:24.356Z,14.54
2022-12-19T16:05:39.946Z,15.85
2022-12-19T16:08:07.733Z,16.52
2022-12-19T16:10:35.556Z,16.71
2022-12-19T16:13:03.401Z,17.47
2022-12-19T16:15:31.294Z,17.27
2022-12-19T16:17:59.146Z,18.24
2022-12-19T16:20:27.312Z,18.57
2022-12-19T16:22:55.647Z,19.67
2022-12-19T16:25:23.534Z,19.56
2022-12-19T16:27:51.363Z,18.13
2022-12-19T16:30:19.340Z,15.22
2022-12-19T16:32:47.324Z,12.79
2022-12-19T16:35:17.542Z,10.96
2022-12-19T16:37:51.964Z,9.78
2022-12-19T16:40:19.785Z,9.11
2022-12-19T16:42:47.544Z,8.54
2022-12-19T16:45:15.519Z,8.39
2022-12-19T16:47:43.359Z,8.83
2022-12-19T16:50:11.224Z,9.41
2022-12-19T16:52:42.559Z,9.48
2022-12-19T16:55:10.929Z,10.66
2022-12-19T16:57:38.713Z,10.97
2022-12-19T17:00:06.535Z,11.95
2022-12-19T17:02:34.426Z,12.85
2022-12-19T17:05:02.375Z,13.29
2022-12-19T17:07:30.260Z,13.62
2022-12-19T17:09:58.141Z,14.45
2022-12-19T17:12:25.902Z,15.12
2022-12-19T17:14:53.977Z,16.08
2022-12-19T17:17:22.149Z,17.00
2022-12-19T17:19:49.946Z,17.13
2022-12-19T17:22:17.717Z,17.72
2022-12-19T17:24:47.219Z,18.27
2022-12-19T17:27:22.899Z,18.41
2022-12-19T17:29:50.671Z,18.13
2022-12-19T17:32:23.972Z,18.46
2022-12-19T17:34:52.443Z,18.91
2022-12-19T17:37:20.356Z,19.30
2022-12-19T17:39:49.023Z,20.26
2022-12-19T17:42:17.104Z,20.49
2022-12-19T17:44:45.160Z,20.82
2022-12-19T17:47:13.059Z,21.27
2022-12-19T17:49:40.943Z,21.80
2022-12-19T17:52:08.663Z,22.06
2022-12-19T17:54:36.459Z,22.69
2022-12-19T17:57:04.154Z,22.78
2022-12-19T17:59:31.903Z,22.69
2022-12-19T18:01:59.970Z,22.75
2022-12-19T18:04:27.906Z,21.07
2022-12-19T18:06:55.645Z,15.10
2022-12-19T18:09:23.500Z,12.18
2022-12-19T18:11:51.431Z,10.75
2022-12-19T18:14:19.327Z,10.44
2022-12-19T18:16:47.129Z,9.66
2022-12-19T18:19:15.347Z,9.01
2022-12-19T18:21:43.086Z,8.49
2022-12-19T18:24:11.032Z,8.25
2022-12-19T18:26:38.753Z,7.77
2022-12-19T18:29:06.710Z,7.26
2022-12-19T18:31:36.204Z,6.91
2022-12-19T18:34:07.921Z,6.68
2022-12-19T18:36:36.041Z,6.96
2022-12-19T18:39:03.762Z,7.58
2022-12-19T18:41:31.523Z,8.10
2022-12-19T18:43:59.274Z,8.95
2022-12-19T18:46:27.103Z,9.41
2022-12-19T18:48:55.578Z,10.20
2022-12-19T18:51:23.450Z,11.04
2022-12-19T18:53:51.439Z,11.78
2022-12-19T18:56:19.413Z,12.70
2022-12-19T18:58:47.342Z,13.25
2022-12-19T19:01:15.678Z,14.22
2022-12-19T19:03:43.579Z,14.65
2022-12-19T19:06:11.450Z,14.92
2022-12-19T19:08:39.204Z,16.09
2022-12-19T19:11:07.029Z,16.45
2022-12-19T19:13:34.847Z,16.90
2022-12-19T19:16:02.740Z,17.66
2022-12-19T19:18:30.603Z,18.28
2022-12-19T19:21:01.247Z,18.53
2022-12-19T19:23:29.269Z,19.20
2022-12-19T19:25:57.215Z,19.61
2022-12-19T19:28:24.978Z,19.99
2022-12-19T19:30:52.787Z,19.71
2022-12-19T19:33:20.571Z,19.23
2022-12-19T19:35:48.444Z,18.51
2022-12-19T19:38:16.227Z,17.69
2022-12-19T19:40:43.995Z,17.13
2022-12-19T19:43:11.762Z,17.49
2022-12-19T19:45:43.473Z,17.29
2022-12-19T19:48:11.724Z,18.23
2022-12-19T19:50:39.503Z,18.45
2022-12-19T19:53:07.377Z,19.18
2022-12-19T19:55:35.112Z,19.48
2022-12-19T19:58:02.903Z,19.82
2022-12-19T20:00:30.746Z,20.36
2022-12-19T20:03:01.001Z,20.61
2022-12-19T20:05:32.980Z,21.27
2022-12-19T20:08:00.839Z,21.88
2022-12-19T20:10:28.681Z,21.72
2022-12-19T20:12:56.476Z,21.67
2022-12-19T20:15:24.254Z,22.30
2022-12-19T20:17:53.789Z,22.50
2022-12-19T20:20:21.683Z,22.83
2022-12-19T20:22:49.610Z,22.95
2022-12-19T20:25:18.128Z,22.86
2022-12-19T20:27:46.171Z,23.41
2022-12-19T20:30:13.922Z,23.45
2022-12-19T20:32:41.667Z,23.67
2022-12-19T20:35:14.556Z,24.45
2022-12-19T20:37:42.970Z,24.13
2022-12-19T20:40:10.757Z,24.73
2022-12-19T20:42:38.567Z,24.80
2022-12-19T20:45:06.870Z,24.71
2022-12-19T20:47:34.624Z,25.10
2022-12-19T20:50:02.524Z,25.40
2022-12-19T20:52:30.267Z,25.13
2022-12-19T20:54:57.993Z,25.30
2022-12-19T20:57:25.899Z,25.58
2022-12-19T20:59:56.120Z,25.63
2022-12-19T21:02:24.058Z,26.12
2022-12-19T21:04:51.878Z,26.24
2022-12-19T21:07:19.656Z,25.79
2022-12-19T21:09:49.193Z,26.27
2022-12-19T21:12:16.920Z,26.26
2022-12-19T21:14:44.675Z,26.62
2022-12-19T21:17:13.328Z,26.90
2022-12-19T21:19:41.070Z,26.59
2022-12-19T21:22:08.791Z,26.93
2022-12-19T21:24:36.935Z,27.38
2022-12-19T21:27:04.822Z,27.07
2022-12-19T21:29:32.551Z,27.03
2022-12-19T21:32:00.412Z,27.14
2022-12-19T21:34:28.284Z,26.93
2022-12-19T21:36:55.995Z,27.38
2022-12-19T21:39:25.508Z,27.29
2022-12-19T21:41:53.357Z,27.52
2022-12-19T21:44:21.269Z,27.37
2022-12-19T21:46:49.001Z,27.40
2022-12-19T21:49:16.771Z,27.54
2022-12-19T21:51:46.468Z,27.64
2022-12-19T21:54:14.212Z,27.76
2022-12-19T21:56:42.057Z,27.64
2022-12-19T21:59:09.788Z,27.85
2022-12-19T22:01:37.803Z,27.95
2022-12-19T22:04:06.519Z,27.92
2022-12-19T22:06:34.354Z,27.93
2022-12-19T22:09:02.234Z,27.81
2022-12-19T22:11:30.103Z,28.05
2022-12-19T22:13:57.845Z,27.78
2022-12-19T22:16:25.748Z,28.03
2022-12-19T22:18:54.982Z,28.10
2022-12-19T22:21:22.766Z,28.05
2022-12-19T22:23:50.629Z,27.82
2022-12-19T22:26:21.385Z,28.17
2022-12-19T22:28:49.363Z,27.90
2022-12-19T22:31:17.637Z,28.03
2022-12-19T22:33:45.468Z,28.36
2022-12-19T22:36:15.632Z,28.49
2022-12-19T22:38:44.035Z,28.91
2022-12-19T22:41:11.822Z,28.62
2022-12-19T22:43:40.067Z,28.17
2022-12-19T22:46:07.960Z,28.71
2022-12-19T22:48:36.103Z,28.64
2022-12-19T22:51:03.872Z,28.90
2022-12-19T22:53:34.346Z,28.61
2022-12-19T22:56:06.301Z,28.27
2022-12-19T22:58:35.368Z,28.77
2022-12-19T23:01:03.496Z,28.62
2022-12-19T23:03:31.417Z,28.94
2022-12-19T23:05:59.403Z,28.73
2022-12-19T23:08:27.156Z,28.62
2022-12-19T23:10:54.955Z,28.74
2022-12-19T23:13:22.836Z,28.68
2022-12-19T23:15:50.549Z,28.96
2022-12-19T23:18:18.501Z,28.79
2022-12-19T23:20:46.238Z,29.11
2022-12-19T23:23:16.123Z,29.08
2022-12-19T23:25:44.088Z,28.94
2022-12-19T23:28:11.868Z,28.64
2022-12-19T23:30:39.859Z,28.80
2022-12-19T23:33:07.682Z,28.68
2022-12-19T23:35:35.456Z,28.61
2022-12-19T23:38:03.605Z,28.71
2022-12-19T23:40:31.348Z,28.99
2022-12-19T23:42:59.922Z,29.02
2022-12-19T23:45:27.965Z,29.08
2022-12-19T23:47:55.852Z,28.81
2022-12-19T23:50:23.603Z,28.59
2022-12-19T23:52:51.353Z,28.89
2022-12-19T23:55:19.263Z,28.74
2022-12-19T23:57:47.009Z,28.93
